createdAt,value
2023-04-10T00:12:11.582Z,25.374
2023-04-10T00:27:13.322Z,25.552
2023-04-10T00:42:15.021Z,25.051
2023-04-10T00:57:16.767Z,25.394
2023-04-10T01:12:18.555Z,25.922
2023-04-10T01:27:20.283Z,26.235
2023-04-10T01:42:22.037Z,26.94
2023-04-10T01:57:23.793Z,27.785
2023-04-10T02:12:25.546Z,27.518
2023-04-10T02:27:27.318Z,27.021
2023-04-10T02:42:29.055Z,27.324
2023-04-10T02:57:30.757Z,27.702
2023-04-10T03:12:32.448Z,27.543
2023-04-10T03:27:34.192Z,27.434
2023-04-10T03:42:35.960Z,27.227
2023-04-10T03:57:37.720Z,26.754
2023-04-10T04:12:39.434Z,26.633
2023-04-10T04:27:41.162Z,26.661
2023-04-10T04:42:42.899Z,26.251
2023-04-10T04:57:44.644Z,26.744
2023-04-10T05:12:46.406Z,25.98
2023-04-10T05:27:48.202Z,26.918
2023-04-10T05:42:50.104Z,25.606
2023-04-10T05:57:51.848Z,25.65
2023-04-10T06:12:53.622Z,25.434
2023-04-10T06:27:55.381Z,25.517
2023-04-10T06:42:57.164Z,25.67
2023-04-10T06:57:58.968Z,26.353
2023-04-10T07:13:00.782Z,26.237
2023-04-10T07:28:02.547Z,25.715
2023-04-10T07:43:04.351Z,25.414
2023-04-10T07:58:06.122Z,25.688
2023-04-10T08:13:07.910Z,25.792
2023-04-10T08:28:09.665Z,25.565
2023-04-10T08:43:11.482Z,25.281
2023-04-10T08:58:13.196Z,25.049
2023-04-10T09:13:14.939Z,24.837
2023-04-10T09:28:16.668Z,25.033
2023-04-10T09:43:18.484Z,24.851
2023-04-10T09:58:20.240Z,25.296
2023-04-10T10:13:21.942Z,24.789
2023-04-10T10:28:23.636Z,25.029
2023-04-10T10:43:25.396Z,24.896
2023-04-10T10:58:27.173Z,25.702
2023-04-10T11:13:28.948Z,25.101
2023-04-10T11:28:30.673Z,24.724
2023-04-10T11:43:32.359Z,24.838
2023-04-10T11:58:34.094Z,25.349
2023-04-10T12:13:35.830Z,25.526
2023-04-10T12:28:37.556Z,25.598
2023-04-10T12:43:39.292Z,24.729
2023-04-10T12:58:41.041Z,24.721
2023-04-10T13:13:42.767Z,25.187
2023-04-10T13:28:44.462Z,24.889
2023-04-10T13:43:46.233Z,24.687
2023-04-10T13:58:47.963Z,25.719
2023-04-10T14:13:49.674Z,25.894
2023-04-10T14:28:51.489Z,25.545
2023-04-10T14:43:53.443Z,25.231
2023-04-10T14:58:55.256Z,25.042
2023-04-10T15:13:56.997Z,26.443
2023-04-10T15:28:58.730Z,27.071
2023-04-10T15:44:00.435Z,27.561
2023-04-10T15:59:02.142Z,26.47
2023-04-10T16:14:03.897Z,26.425
2023-04-10T16:29:05.671Z,26.549
2023-04-10T16:44:07.426Z,26.851
2023-04-10T16:59:09.136Z,26.986
2023-04-10T17:14:10.856Z,27.003
2023-04-10T17:29:12.609Z,27.101
2023-04-10T17:44:14.380Z,27.168
2023-04-10T17:59:16.139Z,26.178
2023-04-10T18:14:17.973Z,26.624
2023-04-10T18:29:19.731Z,26.843
2023-04-10T18:44:21.490Z,26.879
2023-04-10T18:59:23.239Z,26.75
2023-04-10T19:14:25.016Z,26.602
2023-04-10T19:29:26.749Z,25.882
2023-04-10T19:44:28.437Z,26.651
2023-04-10T19:59:30.155Z,26.836
2023-04-10T20:14:31.942Z,26.22
2023-04-10T20:29:33.656Z,26.206
2023-04-10T20:44:35.425Z,25.427
2023-04-10T20:59:37.131Z,26.197
2023-04-10T21:14:38.912Z,26.198
2023-04-10T21:29:40.699Z,26.7
2023-04-10T21:44:42.421Z,27.954
2023-04-10T21:59:44.221Z,31.729
2023-04-10T22:14:46.032Z,30.186
2023-04-10T22:29:56.534Z,28.255
2023-04-10T22:45:04.282Z,27.359
2023-04-10T23:00:06.030Z,27.725
2023-04-10T23:15:07.809Z,27.836
2023-04-10T23:30:09.586Z,27.414
2023-04-10T23:45:11.303Z,27.544
